Time;durP1;ratioP1;P1;durP2;ratioP2;P2;SDS_P1;SDS_P2;PMS_P1;PMS_P2;Temp;Humidity;BMP_temperature;BMP_pressure;BME280_temperature;BME280_humidity;BME280_pressure;Samples;Min_cycle;Max_cycle;Signal;HPM_P1;HPM_P2
2021/04/28 00:00:34;;;;;;;45.00;32.10;;;;;;;;;;4278419;33;20216;-62
2021/04/28 00:03:03;;;;;;;23.33;16.40;;;;;;;;;;4276050;33;20873;-61
2021/04/28 00:05:29;;;;;;;26.30;17.90;;;;;;;;;;4272936;33;20547;-60
2021/04/28 00:07:55;;;;;;;24.93;16.00;;;;;;;;;;4276706;33;20294;-59
2021/04/28 00:10:25;;;;;;;23.53;15.03;;;;;;;;;;4283058;33;20582;-60
2021/04/28 00:12:50;;;;;;;16.03;13.00;;;;;;;;;;4277754;33;20212;-61
2021/04/28 00:15:20;;;;;;;17.33;11.75;;;;;;;;;;4272974;33;20622;-61
2021/04/28 00:17:47;;;;;;;20.37;10.27;;;;;;;;;;4287038;33;20547;-60
2021/04/28 00:20:14;;;;;;;17.23;10.23;;;;;;;;;;4279194;33;20216;-60
2021/04/28 00:22:40;;;;;;;31.30;10.73;;;;;;;;;;4262803;33;20208;-58
2021/04/28 00:25:09;;;;;;;16.27;9.80;;;;;;;;;;4273175;33;20362;-60
2021/04/28 00:27:35;;;;;;;16.83;8.63;;;;;;;;;;4277293;33;20282;-58
2021/04/28 00:30:04;;;;;;;15.07;7.53;;;;;;;;;;4279062;33;20310;-57
2021/04/28 00:32:30;;;;;;;16.00;8.80;;;;;;;;;;4275444;33;20235;-56
2021/04/28 00:34:56;;;;;;;13.10;9.40;;;;;;;;;;4283919;33;20351;-57
2021/04/28 00:37:21;;;;;;;14.70;8.83;;;;;;;;;;4277130;33;20320;-56
2021/04/28 00:39:47;;;;;;;24.30;9.53;;;;;;;;;;4279055;33;20418;-57
2021/04/28 00:42:15;;;;;;;14.83;9.23;;;;;;;;;;4283804;33;20361;-56
2021/04/28 00:44:42;;;;;;;18.30;10.33;;;;;;;;;;4276885;33;20319;-56
2021/04/28 00:47:07;;;;;;;20.43;11.63;;;;;;;;;;4270042;33;20244;-58
2021/04/28 00:49:33;;;;;;;24.80;12.13;;;;;;;;;;4280849;33;20672;-60
2021/04/28 00:51:58;;;;;;;17.90;9.70;;;;;;;;;;4282275;33;20227;-59
2021/04/28 00:54:25;;;;;;;15.87;8.67;;;;;;;;;;4284056;33;20347;-60
2021/04/28 00:56:56;;;;;;;21.10;9.60;;;;;;;;;;4274775;33;20241;-59
2021/04/28 00:59:21;;;;;;;21.40;9.50;;;;;;;;;;4280686;33;20212;-59
2021/04/28 01:01:47;;;;;;;18.23;10.20;;;;;;;;;;4274838;33;20624;-59
2021/04/28 01:04:13;;;;;;;15.30;7.80;;;;;;;;;;4272832;33;20783;-59
2021/04/28 01:06:39;;;;;;;16.20;8.47;;;;;;;;;;4286158;33;20209;-60
2021/04/28 01:09:05;;;;;;;15.33;9.30;;;;;;;;;;4267411;33;20363;-58
2021/04/28 01:11:32;;;;;;;17.95;9.13;;;;;;;;;;4281908;33;20715;-58
2021/04/28 01:13:58;;;;;;;21.13;8.47;;;;;;;;;;4284283;33;20267;-59
2021/04/28 01:16:24;;;;;;;16.50;9.57;;;;;;;;;;4266299;33;20373;-59
2021/04/28 01:18:50;;;;;;;14.60;8.32;;;;;;;;;;4280495;33;20310;-60
2021/04/28 01:21:16;;;;;;;12.07;7.67;;;;;;;;;;4274008;33;20625;-59
2021/04/28 01:23:41;;;;;;;19.50;9.07;;;;;;;;;;4273963;33;20458;-59
2021/04/28 01:26:08;;;;;;;21.57;9.73;;;;;;;;;;4264476;33;20286;-59
2021/04/28 01:28:35;;;;;;;23.77;10.05;;;;;;;;;;4284184;33;20228;-60
2021/04/28 01:31:12;;;;;;;20.23;10.20;;;;;;;;;;4260439;33;20687;-59
2021/04/28 01:33:41;;;;;;;23.70;11.47;;;;;;;;;;4275950;33;20259;-59
2021/04/28 01:36:28;;;;;;;23.70;10.80;;;;;;;;;;4264849;33;20680;-59
2021/04/28 01:38:57;;;;;;;22.10;14.20;;;;;;;;;;4276759;33;20338;-58
2021/04/28 01:41:24;;;;;;;26.60;16.63;;;;;;;;;;4273268;33;20701;-58
2021/04/28 01:43:51;;;;;;;27.90;17.70;;;;;;;;;;4274777;33;20841;-59
2021/04/28 01:46:16;;;;;;;25.03;19.07;;;;;;;;;;4274277;33;20213;-58
2021/04/28 01:48:44;;;;;;;29.23;19.60;;;;;;;;;;4276639;33;20295;-58
2021/04/28 01:51:12;;;;;;;31.60;21.60;;;;;;;;;;4281956;33;20200;-57
2021/04/28 01:53:38;;;;;;;33.60;21.17;;;;;;;;;;4250821;33;20729;-61
2021/04/28 01:56:04;;;;;;;24.90;15.83;;;;;;;;;;4273359;33;20380;-61
2021/04/28 01:58:30;;;;;;;19.30;15.57;;;;;;;;;;4277401;33;20287;-63
2021/04/28 02:00:57;;;;;;;25.97;15.53;;;;;;;;;;4274493;33;20274;-62
2021/04/28 02:03:24;;;;;;;30.35;16.75;;;;;;;;;;4275300;33;20333;-62
2021/04/28 02:05:51;;;;;;;27.80;17.00;;;;;;;;;;4271615;33;20242;-62
2021/04/28 02:08:16;;;;;;;28.33;18.97;;;;;;;;;;4276145;33;20212;-62
2021/04/28 02:10:42;;;;;;;33.33;18.80;;;;;;;;;;4281426;33;20648;-62
2021/04/28 02:13:10;;;;;;;28.50;17.07;;;;;;;;;;4274698;33;20296;-63
2021/04/28 02:15:35;;;;;;;23.02;17.00;;;;;;;;;;4265230;33;20619;-62
2021/04/28 02:18:03;;;;;;;30.30;16.47;;;;;;;;;;4275860;33;20307;-61
2021/04/28 02:20:29;;;;;;;30.20;16.43;;;;;;;;;;4276796;33;20220;-62
2021/04/28 02:22:56;;;;;;;29.30;16.50;;;;;;;;;;4274734;33;20307;-62
2021/04/28 02:25:22;;;;;;;17.67;10.20;;;;;;;;;;4272215;33;20213;-63
2021/04/28 02:27:53;;;;;;;17.97;10.07;;;;;;;;;;4276577;33;20212;-63
2021/04/28 02:30:19;;;;;;;14.70;7.67;;;;;;;;;;4260343;33;20724;-62
2021/04/28 02:32:45;;;;;;;9.63;6.60;;;;;;;;;;4278378;33;20326;-61
2021/04/28 02:35:13;;;;;;;14.97;6.97;;;;;;;;;;4262436;33;20383;-62
2021/04/28 02:37:41;;;;;;;17.43;8.53;;;;;;;;;;4277935;33;20256;-61
2021/04/28 02:40:10;;;;;;;18.80;8.60;;;;;;;;;;4278297;33;20290;-61
2021/04/28 02:42:35;;;;;;;14.67;7.40;;;;;;;;;;4280384;33;20257;-61
2021/04/28 02:45:04;;;;;;;15.23;8.20;;;;;;;;;;4273983;33;20298;-61
2021/04/28 02:47:32;;;;;;;16.20;8.93;;;;;;;;;;4282408;33;20248;-60
2021/04/28 02:49:57;;;;;;;14.50;7.07;;;;;;;;;;4269409;33;20244;-63
2021/04/28 02:52:24;;;;;;;24.83;9.77;;;;;;;;;;4270846;33;20311;-63
2021/04/28 02:54:50;;;;;;;20.93;10.03;;;;;;;;;;4282601;33;20212;-63
2021/04/28 02:57:17;;;;;;;17.80;8.73;;;;;;;;;;4275601;33;20216;-61
2021/04/28 02:59:43;;;;;;;16.90;8.67;;;;;;;;;;4275857;33;20345;-60
2021/04/28 03:02:09;;;;;;;18.53;9.47;;;;;;;;;;4290968;33;21316;-59
2021/04/28 03:04:39;;;;;;;18.87;8.93;;;;;;;;;;4283631;33;20276;-59
2021/04/28 03:07:05;;;;;;;17.33;10.13;;;;;;;;;;4275583;33;20263;-60
2021/04/28 03:09:32;;;;;;;20.20;10.70;;;;;;;;;;4275548;33;20244;-59
2021/04/28 03:11:58;;;;;;;15.63;12.00;;;;;;;;;;4283562;33;20212;-59
2021/04/28 03:14:24;;;;;;;17.63;11.97;;;;;;;;;;4277015;33;20300;-62
2021/04/28 03:16:50;;;;;;;22.43;13.13;;;;;;;;;;4270308;33;20574;-62
2021/04/28 03:19:17;;;;;;;22.13;12.57;;;;;;;;;;4266795;33;20374;-61
2021/04/28 03:21:46;;;;;;;23.43;12.13;;;;;;;;;;4261958;33;20271;-62
2021/04/28 03:24:12;;;;;;;22.07;11.57;;;;;;;;;;4282255;33;20744;-60
2021/04/28 03:26:38;;;;;;;19.13;12.47;;;;;;;;;;4277104;33;20212;-61
2021/04/28 03:29:03;;;;;;;21.83;12.03;;;;;;;;;;4275439;33;20297;-62
2021/04/28 03:31:29;;;;;;;17.10;11.50;;;;;;;;;;4283337;33;20283;-63
2021/04/28 03:33:55;;;;;;;18.07;11.63;;;;;;;;;;4278295;33;20271;-61
2021/04/28 03:36:21;;;;;;;22.33;12.60;;;;;;;;;;4278428;33;20335;-60
2021/04/28 03:38:46;;;;;;;22.07;12.20;;;;;;;;;;4273457;33;20299;-61
2021/04/28 03:41:12;;;;;;;21.10;11.93;;;;;;;;;;4263030;33;20250;-60
2021/04/28 03:43:38;;;;;;;22.00;11.83;;;;;;;;;;4277809;33;20771;-61
2021/04/28 03:46:03;;;;;;;25.33;14.67;;;;;;;;;;4278723;33;20258;-60
2021/04/28 03:48:29;;;;;;;27.73;14.77;;;;;;;;;;4276237;33;20301;-60
2021/04/28 03:50:55;;;;;;;24.83;13.83;;;;;;;;;;4279340;33;20311;-60
2021/04/28 03:53:20;;;;;;;25.70;13.50;;;;;;;;;;4277291;33;20362;-60
2021/04/28 03:55:46;;;;;;;53.40;24.30;;;;;;;;;;4278526;33;20270;-60
2021/04/28 03:58:11;;;;;;;39.27;18.90;;;;;;;;;;4277182;33;20362;-58
2021/04/28 04:00:36;;;;;;;38.13;18.27;;;;;;;;;;4279337;33;20244;-59
2021/04/28 04:03:04;;;;;;;32.33;15.63;;;;;;;;;;4277260;33;20258;-58
2021/04/28 04:05:30;;;;;;;34.57;16.57;;;;;;;;;;4281569;33;20556;-60
2021/04/28 04:07:56;;;;;;;33.57;18.00;;;;;;;;;;4274450;33;20212;-61
2021/04/28 04:10:22;;;;;;;31.33;16.73;;;;;;;;;;4275346;33;20337;-59
2021/04/28 04:12:47;;;;;;;34.23;17.67;;;;;;;;;;4276590;33;20344;-59
2021/04/28 04:15:13;;;;;;;17.30;11.17;;;;;;;;;;4283126;33;20350;-59
2021/04/28 04:17:38;;;;;;;12.10;9.07;;;;;;;;;;4273220;33;20315;-60
2021/04/28 04:20:05;;;;;;;23.03;11.40;;;;;;;;;;4277096;33;20441;-59
2021/04/28 04:22:31;;;;;;;22.47;11.50;;;;;;;;;;4279430;33;20315;-65
2021/04/28 04:24:56;;;;;;;20.13;10.43;;;;;;;;;;4281462;33;20283;-59
2021/04/28 04:27:22;;;;;;;35.97;19.50;;;;;;;;;;4272833;33;20595;-58
2021/04/28 04:29:47;;;;;;;26.67;15.27;;;;;;;;;;4277296;33;20349;-60
2021/04/28 04:32:13;;;;;;;31.53;23.23;;;;;;;;;;4281176;33;20658;-59
2021/04/28 04:34:38;;;;;;;22.60;13.63;;;;;;;;;;4263695;33;20343;-61
2021/04/28 04:37:04;;;;;;;22.97;12.67;;;;;;;;;;4275363;33;20311;-59
2021/04/28 04:39:30;;;;;;;23.63;12.97;;;;;;;;;;4274133;33;20329;-59
2021/04/28 04:41:55;;;;;;;19.30;10.10;;;;;;;;;;4281472;33;20228;-59
2021/04/28 04:44:21;;;;;;;27.87;12.87;;;;;;;;;;4277480;33;20554;-59
2021/04/28 04:46:47;;;;;;;24.63;10.17;;;;;;;;;;4287089;33;20324;-59
2021/04/28 04:49:12;;;;;;;21.17;11.10;;;;;;;;;;4266512;33;20288;-60
2021/04/28 04:51:39;;;;;;;20.80;11.10;;;;;;;;;;4266336;33;20295;-59
2021/04/28 04:54:05;;;;;;;20.50;12.23;;;;;;;;;;4277234;33;20306;-60
2021/04/28 04:56:30;;;;;;;21.30;12.83;;;;;;;;;;4275871;33;20261;-60
2021/04/28 04:58:56;;;;;;;22.47;11.30;;;;;;;;;;4274306;33;20701;-61
2021/04/28 05:01:21;;;;;;;15.87;9.77;;;;;;;;;;4281112;33;20216;-60
2021/04/28 05:03:46;;;;;;;20.53;8.87;;;;;;;;;;4271149;33;20347;-60
2021/04/28 05:06:12;;;;;;;19.90;11.30;;;;;;;;;;4265445;33;20358;-60
2021/04/28 05:08:38;;;;;;;18.00;10.27;;;;;;;;;;4274398;33;20568;-57
2021/04/28 05:11:03;;;;;;;16.63;8.90;;;;;;;;;;4279366;33;20321;-57
2021/04/28 05:13:29;;;;;;;12.13;6.70;;;;;;;;;;4276718;33;20309;-56
2021/04/28 05:15:54;;;;;;;16.07;8.77;;;;;;;;;;4278017;33;20667;-58
2021/04/28 05:18:20;;;;;;;18.77;10.23;;;;;;;;;;4276249;33;20279;-58
2021/04/28 05:20:46;;;;;;;17.33;10.20;;;;;;;;;;4278476;33;20211;-57
2021/04/28 05:23:11;;;;;;;21.07;11.53;;;;;;;;;;4280720;33;20358;-57
2021/04/28 05:25:37;;;;;;;23.20;10.70;;;;;;;;;;4278883;33;20291;-55
2021/04/28 05:28:03;;;;;;;32.30;14.07;;;;;;;;;;4273792;33;20267;-56
2021/04/28 05:30:28;;;;;;;16.40;11.73;;;;;;;;;;4276924;33;20293;-56
2021/04/28 05:32:54;;;;;;;21.63;11.40;;;;;;;;;;4275778;33;20204;-56
2021/04/28 05:35:20;;;;;;;15.20;10.80;;;;;;;;;;4281022;33;20294;-56
2021/04/28 05:37:46;;;;;;;18.77;12.47;;;;;;;;;;4272412;33;20228;-57
2021/04/28 05:40:12;;;;;;;21.47;12.03;;;;;;;;;;4277303;33;20354;-56
2021/04/28 05:42:37;;;;;;;33.60;13.90;;;;;;;;;;4277524;33;20373;-55
2021/04/28 05:45:08;;;;;;;25.87;13.13;;;;;;;;;;4263359;33;20315;-58
2021/04/28 05:47:35;;;;;;;31.03;13.73;;;;;;;;;;4273564;33;20373;-57
2021/04/28 05:50:01;;;;;;;31.07;13.33;;;;;;;;;;4267671;33;20219;-57
2021/04/28 05:52:26;;;;;;;24.43;14.03;;;;;;;;;;4268943;33;20304;-58
2021/04/28 05:54:52;;;;;;;28.63;14.40;;;;;;;;;;4277482;33;20669;-64
2021/04/28 05:57:17;;;;;;;21.03;14.23;;;;;;;;;;4276331;33;20274;-61
2021/04/28 05:59:46;;;;;;;25.80;14.20;;;;;;;;;;4277858;33;20292;-61
2021/04/28 06:02:11;;;;;;;24.00;15.13;;;;;;;;;;4278523;33;20255;-59
2021/04/28 06:04:37;;;;;;;22.17;12.40;;;;;;;;;;4276104;33;20663;-59
2021/04/28 06:07:03;;;;;;;26.57;15.40;;;;;;;;;;4275655;33;20358;-59
2021/04/28 06:09:29;;;;;;;27.80;17.10;;;;;;;;;;4274413;33;20628;-58
2021/04/28 06:11:54;;;;;;;33.67;17.17;;;;;;;;;;4259298;33;20216;-58
2021/04/28 06:14:20;;;;;;;29.07;15.80;;;;;;;;;;4269114;33;20335;-59
2021/04/28 06:16:46;;;;;;;27.80;14.83;;;;;;;;;;4270568;33;20220;-60
2021/04/28 06:19:11;;;;;;;23.27;13.17;;;;;;;;;;4277629;33;20695;-59
2021/04/28 06:21:40;;;;;;;49.30;13.63;;;;;;;;;;4272353;33;20668;-58
2021/04/28 06:24:07;;;;;;;22.93;13.17;;;;;;;;;;4270885;33;20208;-57
2021/04/28 06:26:34;;;;;;;29.73;12.57;;;;;;;;;;4271858;33;20259;-57
2021/04/28 06:29:00;;;;;;;21.47;11.90;;;;;;;;;;4271522;33;20295;-56
2021/04/28 06:31:25;;;;;;;33.47;12.43;;;;;;;;;;4270313;33;20286;-56
2021/04/28 06:33:51;;;;;;;29.27;13.30;;;;;;;;;;4281634;33;20567;-60
2021/04/28 06:36:17;;;;;;;19.47;11.53;;;;;;;;;;4276629;33;20315;-57
2021/04/28 06:38:43;;;;;;;20.53;11.60;;;;;;;;;;4264111;33;20728;-60
2021/04/28 06:41:08;;;;;;;19.67;10.67;;;;;;;;;;4263447;33;20252;-58
2021/04/28 06:43:34;;;;;;;32.23;11.40;;;;;;;;;;4275983;33;20301;-59
2021/04/28 06:45:59;;;;;;;18.70;10.63;;;;;;;;;;4260589;33;20323;-59
2021/04/28 06:48:25;;;;;;;19.87;10.20;;;;;;;;;;4277064;33;20279;-58
2021/04/28 06:50:51;;;;;;;17.00;8.90;;;;;;;;;;4275728;33;20279;-59
2021/04/28 06:53:17;;;;;;;18.13;8.47;;;;;;;;;;4282179;33;20306;-59
2021/04/28 06:55:43;;;;;;;13.30;8.03;;;;;;;;;;4267675;33;20370;-58
2021/04/28 06:58:08;;;;;;;13.73;8.13;;;;;;;;;;4283145;33;20366;-58
2021/04/28 07:00:34;;;;;;;16.40;8.18;;;;;;;;;;4276322;33;20242;-58
2021/04/28 07:02:59;;;;;;;15.77;7.47;;;;;;;;;;4278976;33;20291;-58
2021/04/28 07:05:25;;;;;;;21.23;8.47;;;;;;;;;;4275565;33;20808;-57
2021/04/28 07:07:52;;;;;;;22.37;8.85;;;;;;;;;;4266181;33;20323;-58
2021/04/28 07:10:18;;;;;;;35.17;11.57;;;;;;;;;;4265098;33;20228;-58
2021/04/28 07:12:43;;;;;;;32.13;10.53;;;;;;;;;;4272536;33;20393;-58
2021/04/28 07:15:10;;;;;;;29.13;8.33;;;;;;;;;;4279706;33;20283;-58
2021/04/28 07:17:36;;;;;;;24.23;8.67;;;;;;;;;;4277555;33;20200;-57
2021/04/28 07:20:04;;;;;;;21.13;8.00;;;;;;;;;;4289901;33;20430;-56
2021/04/28 07:22:30;;;;;;;18.75;8.77;;;;;;;;;;4283885;33;20275;-58
2021/04/28 07:24:55;;;;;;;18.97;8.93;;;;;;;;;;4279104;33;20434;-59
2021/04/28 07:27:21;;;;;;;23.10;9.07;;;;;;;;;;4277667;33;20255;-57
2021/04/28 07:29:47;;;;;;;19.27;7.27;;;;;;;;;;4268848;33;20288;-57
2021/04/28 07:32:13;;;;;;;20.53;7.20;;;;;;;;;;4270980;33;20627;-58
2021/04/28 07:34:38;;;;;;;18.33;6.87;;;;;;;;;;4276053;33;20383;-59
2021/04/28 07:37:04;;;;;;;26.60;7.40;;;;;;;;;;4280887;33;20332;-58
2021/04/28 07:39:30;;;;;;;18.90;8.07;;;;;;;;;;4275679;33;20427;-58
2021/04/28 07:41:56;;;;;;;24.23;8.60;;;;;;;;;;4271242;33;20235;-57
2021/04/28 07:44:24;;;;;;;24.02;7.47;;;;;;;;;;4279275;33;20599;-57
2021/04/28 07:46:50;;;;;;;19.23;8.47;;;;;;;;;;4267923;33;20271;-57
2021/04/28 07:49:16;;;;;;;18.87;8.18;;;;;;;;;;4279332;33;20259;-57
2021/04/28 07:51:41;;;;;;;12.27;6.87;;;;;;;;;;4269800;33;20241;-58
2021/04/28 07:54:07;;;;;;;28.17;7.50;;;;;;;;;;4274530;33;20322;-58
2021/04/28 07:56:33;;;;;;;18.58;6.70;;;;;;;;;;4263580;33;20335;-57
2021/04/28 07:58:59;;;;;;;14.77;6.75;;;;;;;;;;4271022;33;20337;-57
2021/04/28 08:01:24;;;;;;;14.93;6.53;;;;;;;;;;4269636;33;20812;-56
2021/04/28 08:03:50;;;;;;;13.35;5.78;;;;;;;;;;4279340;33;20302;-57
2021/04/28 08:06:15;;;;;;;11.02;6.03;;;;;;;;;;4271630;33;20385;-57
2021/04/28 08:08:41;;;;;;;15.80;8.23;;;;;;;;;;4271403;33;20642;-57
2021/04/28 08:11:06;;;;;;;17.17;7.55;;;;;;;;;;4276505;33;20235;-58
2021/04/28 08:13:32;;;;;;;13.45;6.62;;;;;;;;;;4272063;33;20280;-58
2021/04/28 08:16:00;;;;;;;19.52;7.12;;;;;;;;;;4262015;33;20249;-57
2021/04/28 08:18:26;;;;;;;11.68;6.75;;;;;;;;;;4283342;33;20370;-58
2021/04/28 08:20:52;;;;;;;11.15;5.95;;;;;;;;;;4263131;33;20642;-58
2021/04/28 08:23:17;;;;;;;21.67;6.28;;;;;;;;;;4279944;33;20283;-59
2021/04/28 08:25:43;;;;;;;15.60;5.90;;;;;;;;;;4267141;33;20611;-58
2021/04/28 08:28:09;;;;;;;10.73;6.55;;;;;;;;;;4278558;33;20417;-58
2021/04/28 08:30:35;;;;;;;17.90;5.90;;;;;;;;;;4276280;33;20231;-58
2021/04/28 08:33:01;;;;;;;17.17;5.65;;;;;;;;;;4274573;33;20672;-59
2021/04/28 08:35:26;;;;;;;13.27;6.60;;;;;;;;;;4283290;33;20643;-59
2021/04/28 08:37:52;;;;;;;14.55;5.40;;;;;;;;;;4269877;33;20235;-58
2021/04/28 08:40:19;;;;;;;8.85;4.35;;;;;;;;;;4271509;33;20282;-58
2021/04/28 08:42:45;;;;;;;10.07;5.45;;;;;;;;;;4272354;33;20665;-58
2021/04/28 08:45:12;;;;;;;7.57;4.65;;;;;;;;;;4271521;33;20314;-59
2021/04/28 08:47:39;;;;;;;11.12;4.62;;;;;;;;;;4270303;33;20196;-58
2021/04/28 08:50:06;;;;;;;10.23;5.22;;;;;;;;;;4289088;33;20653;-58
2021/04/28 08:52:35;;;;;;;11.65;5.50;;;;;;;;;;4262449;33;20358;-58
2021/04/28 08:55:02;;;;;;;11.38;5.47;;;;;;;;;;4278328;33;20284;-58
2021/04/28 08:57:28;;;;;;;10.25;4.78;;;;;;;;;;4274025;33;20212;-58
2021/04/28 08:59:54;;;;;;;15.48;5.65;;;;;;;;;;4276188;33;20653;-60
2021/04/28 09:02:26;;;;;;;13.32;5.68;;;;;;;;;;4265213;33;20315;-58
2021/04/28 09:05:12;;;;;;;15.80;5.62;;;;;;;;;;4272957;33;20679;-58
2021/04/28 09:07:40;;;;;;;12.68;4.60;;;;;;;;;;4280123;33;20229;-58
2021/04/28 09:10:10;;;;;;;23.95;6.20;;;;;;;;;;4257297;33;20205;-58
2021/04/28 09:12:37;;;;;;;9.68;4.90;;;;;;;;;;4285952;33;20216;-59
2021/04/28 09:15:05;;;;;;;15.43;4.87;;;;;;;;;;4273708;33;20204;-59
2021/04/28 09:17:31;;;;;;;8.65;4.07;;;;;;;;;;4273022;33;20278;-58
2021/04/28 09:20:19;;;;;;;7.85;4.90;;;;;;;;;;4278691;33;20280;-58
2021/04/28 09:22:50;;;;;;;12.43;5.25;;;;;;;;;;4275340;33;20578;-59
2021/04/28 09:25:51;;;;;;;26.65;7.15;;;;;;;;;;4267891;33;20228;-59
2021/04/28 09:28:20;;;;;;;13.70;5.37;;;;;;;;;;4273766;33;20594;-58
2021/04/28 09:30:45;;;;;;;8.10;4.30;;;;;;;;;;4260458;33;20713;-59
2021/04/28 09:33:11;;;;;;;13.05;5.72;;;;;;;;;;4273044;33;20295;-59
2021/04/28 09:35:37;;;;;;;10.93;4.43;;;;;;;;;;4266170;33;20354;-58
2021/04/28 09:38:03;;;;;;;13.75;4.40;;;;;;;;;;4273111;33;20688;-58
2021/04/28 09:40:39;;;;;;;16.33;4.68;;;;;;;;;;4268830;33;20613;-59
2021/04/28 09:43:06;;;;;;;9.07;4.53;;;;;;;;;;4281378;33;20287;-59
2021/04/28 09:45:44;;;;;;;12.98;4.95;;;;;;;;;;4274374;33;20539;-58
2021/04/28 09:48:16;;;;;;;4.15;3.60;;;;;;;;;;4274802;33;20302;-59
2021/04/28 09:50:41;;;;;;;10.95;5.18;;;;;;;;;;4269095;33;20469;-60
2021/04/28 09:53:07;;;;;;;14.75;5.37;;;;;;;;;;4271533;33;20279;-59
2021/04/28 09:55:47;;;;;;;7.75;5.18;;;;;;;;;;4273666;33;20675;-58
2021/04/28 09:58:13;;;;;;;13.27;4.47;;;;;;;;;;4275784;33;20279;-58
2021/04/28 10:00:39;;;;;;;14.07;4.50;;;;;;;;;;4272344;33;20430;-57
2021/04/28 10:03:10;;;;;;;18.35;5.37;;;;;;;;;;4276973;33;20284;-59
2021/04/28 10:05:37;;;;;;;9.20;4.45;;;;;;;;;;4258195;33;20245;-59
2021/04/28 10:08:10;;;;;;;7.50;4.30;;;;;;;;;;4270722;33;20275;-58
2021/04/28 10:10:36;;;;;;;11.68;4.53;;;;;;;;;;4267553;33;20258;-58
2021/04/28 10:13:03;;;;;;;11.18;5.05;;;;;;;;;;4277853;33;20292;-57
2021/04/28 10:15:28;;;;;;;14.65;4.87;;;;;;;;;;4292253;33;20273;-58
2021/04/28 10:17:55;;;;;;;9.68;4.10;;;;;;;;;;4274175;33;20267;-59
2021/04/28 10:20:21;;;;;;;8.07;4.60;;;;;;;;;;4290361;33;20235;-59
2021/04/28 10:22:49;;;;;;;9.43;4.43;;;;;;;;;;4274956;33;20204;-59
2021/04/28 10:25:17;;;;;;;9.52;4.20;;;;;;;;;;4278251;33;20661;-58
2021/04/28 10:27:44;;;;;;;6.85;4.30;;;;;;;;;;4276925;33;20267;-59
2021/04/28 10:30:14;;;;;;;12.27;4.43;;;;;;;;;;4280984;33;20402;-60
2021/04/28 10:32:41;;;;;;;6.43;4.15;;;;;;;;;;4275417;33;20278;-59
2021/04/28 10:35:19;;;;;;;14.30;5.22;;;;;;;;;;4274838;33;20602;-60
2021/04/28 10:37:50;;;;;;;15.25;4.22;;;;;;;;;;4268110;33;20246;-58
2021/04/28 10:40:19;;;;;;;9.57;4.15;;;;;;;;;;4280452;33;20216;-59
2021/04/28 10:42:45;;;;;;;15.10;4.62;;;;;;;;;;4259040;33;20589;-61
2021/04/28 10:45:24;;;;;;;8.07;4.75;;;;;;;;;;4261073;33;20315;-60
2021/04/28 10:47:49;;;;;;;17.08;4.57;;;;;;;;;;4274185;33;20207;-57
2021/04/28 10:50:20;;;;;;;12.25;4.32;;;;;;;;;;4285886;33;20290;-58
2021/04/28 10:53:01;;;;;;;14.00;4.12;;;;;;;;;;4274266;33;20684;-59
2021/04/28 10:55:45;;;;;;;8.63;4.25;;;;;;;;;;4285940;33;20274;-59
2021/04/28 10:58:23;;;;;;;15.60;4.40;;;;;;;;;;4276810;33;20270;-57
2021/04/28 11:00:48;;;;;;;17.20;4.95;;;;;;;;;;4264091;33;20382;-57
2021/04/28 11:03:32;;;;;;;21.87;5.05;;;;;;;;;;4274449;33;20386;-59
2021/04/28 11:06:28;;;;;;;12.75;3.87;;;;;;;;;;4273359;33;20316;-58
2021/04/28 11:08:53;;;;;;;14.07;4.97;;;;;;;;;;4267578;33;20809;-58
2021/04/28 11:11:42;;;;;;;10.98;4.35;;;;;;;;;;4259710;33;20236;-58
2021/04/28 11:14:10;;;;;;;10.15;4.72;;;;;;;;;;4276338;33;20243;-58
2021/04/28 11:16:46;;;;;;;9.27;4.50;;;;;;;;;;4272372;33;20237;-58
2021/04/28 11:19:34;;;;;;;9.63;3.67;;;;;;;;;;4255932;33;20646;-58
2021/04/28 11:22:03;;;;;;;23.67;5.32;;;;;;;;;;4264420;33;20240;-58
2021/04/28 11:24:54;;;;;;;7.95;3.25;;;;;;;;;;4263428;33;20237;-58
2021/04/28 11:27:38;;;;;;;6.50;3.80;;;;;;;;;;4257106;33;20224;-57
2021/04/28 11:30:04;;;;;;;8.05;3.37;;;;;;;;;;4275058;33;20320;-57
2021/04/28 11:32:30;;;;;;;8.25;3.55;;;;;;;;;;4267817;33;20457;-57
2021/04/28 11:34:56;;;;;;;10.73;3.75;;;;;;;;;;4257272;33;20427;-57
2021/04/28 11:37:21;;;;;;;12.10;4.18;;;;;;;;;;4269881;33;20599;-57
2021/04/28 11:39:47;;;;;;;11.32;3.67;;;;;;;;;;4274533;33;20267;-56
2021/04/28 11:42:20;;;;;;;12.37;4.35;;;;;;;;;;4268279;33;20232;-56
2021/04/28 11:44:51;;;;;;;11.10;4.70;;;;;;;;;;4279195;33;20622;-57
2021/04/28 11:47:27;;;;;;;10.00;3.08;;;;;;;;;;4260804;33;20659;-56
2021/04/28 11:49:55;;;;;;;4.68;3.37;;;;;;;;;;4280796;33;20282;-56
2021/04/28 11:52:22;;;;;;;7.95;3.03;;;;;;;;;;4267795;33;20223;-57
2021/04/28 11:54:56;;;;;;;10.27;3.67;;;;;;;;;;4267194;33;20297;-56
2021/04/28 11:57:32;;;;;;;11.63;4.15;;;;;;;;;;4264834;33;20260;-57
2021/04/28 12:00:07;;;;;;;9.65;3.75;;;;;;;;;;4273363;33;20319;-58
2021/04/28 12:02:32;;;;;;;14.77;3.65;;;;;;;;;;4275428;33;20235;-57
2021/04/28 12:04:58;;;;;;;14.50;2.95;;;;;;;;;;4265337;33;20272;-55
2021/04/28 12:07:23;;;;;;;11.65;3.58;;;;;;;;;;4267977;33;20304;-57
2021/04/28 12:09:51;;;;;;;10.43;3.60;;;;;;;;;;4263178;33;20617;-58
2021/04/28 12:12:26;;;;;;;13.27;3.28;;;;;;;;;;4277040;33;20224;-58
2021/04/28 12:15:03;;;;;;;12.70;4.75;;;;;;;;;;4279944;33;20233;-58
2021/04/28 12:17:29;;;;;;;12.32;4.12;;;;;;;;;;4258863;33;20664;-58
2021/04/28 12:19:55;;;;;;;11.10;4.03;;;;;;;;;;4263514;33;20267;-58
2021/04/28 12:22:22;;;;;;;8.75;4.87;;;;;;;;;;4277672;33;20653;-57
2021/04/28 12:24:51;;;;;;;9.68;4.10;;;;;;;;;;4266050;33;20350;-59
2021/04/28 12:27:33;;;;;;;19.27;9.80;;;;;;;;;;4267352;33;20323;-58
2021/04/28 12:30:08;;;;;;;8.18;4.22;;;;;;;;;;4262496;33;20200;-58
2021/04/28 12:32:36;;;;;;;6.93;3.65;;;;;;;;;;4262631;33;20283;-57
2021/04/28 12:35:07;;;;;;;8.38;3.70;;;;;;;;;;4280681;33;20213;-58
2021/04/28 12:37:33;;;;;;;12.15;3.60;;;;;;;;;;4260304;33;20221;-57
2021/04/28 12:40:00;;;;;;;17.83;3.97;;;;;;;;;;4275091;33;20318;-58
2021/04/28 12:42:30;;;;;;;8.93;3.67;;;;;;;;;;4262839;33;20311;-57
2021/04/28 12:44:56;;;;;;;16.83;4.35;;;;;;;;;;4269065;33;20659;-58
2021/04/28 12:47:28;;;;;;;15.00;5.05;;;;;;;;;;4269853;33;20262;-58
2021/04/28 12:50:09;;;;;;;8.18;3.87;;;;;;;;;;4283356;33;20848;-57
2021/04/28 12:52:41;;;;;;;14.23;4.70;;;;;;;;;;4278541;33;20208;-58
2021/04/28 12:55:36;;;;;;;11.02;3.70;;;;;;;;;;4262969;33;20251;-58
2021/04/28 12:58:08;;;;;;;11.07;4.00;;;;;;;;;;4269279;33;20216;-56
2021/04/28 13:00:41;;;;;;;21.35;5.03;;;;;;;;;;4271640;33;20246;-58
2021/04/28 13:03:10;;;;;;;16.12;4.05;;;;;;;;;;4268122;33;20311;-58
2021/04/28 13:05:38;;;;;;;10.45;3.97;;;;;;;;;;4271586;33;20295;-56
2021/04/28 13:08:16;;;;;;;13.18;4.30;;;;;;;;;;4255963;33;20339;-57
2021/04/28 13:11:16;;;;;;;15.60;3.55;;;;;;;;;;4255686;33;20338;-58
2021/04/28 13:13:49;;;;;;;15.25;4.82;;;;;;;;;;4226530;33;20221;-57
2021/04/28 13:16:37;;;;;;;17.52;5.53;;;;;;;;;;4252673;33;20634;-57
2021/04/28 13:19:07;;;;;;;15.07;4.25;;;;;;;;;;4258299;33;20355;-56
2021/04/28 13:21:36;;;;;;;13.32;3.45;;;;;;;;;;4260118;33;20253;-57
2021/04/28 13:24:01;;;;;;;15.45;4.45;;;;;;;;;;4269216;33;20287;-57
2021/04/28 13:26:27;;;;;;;14.05;5.43;;;;;;;;;;4262909;33;20672;-58
2021/04/28 13:28:56;;;;;;;17.95;8.20;;;;;;;;;;4261831;33;20221;-57
2021/04/28 13:31:37;;;;;;;16.67;3.85;;;;;;;;;;4257035;33;20224;-57
2021/04/28 13:34:06;;;;;;;20.23;5.07;;;;;;;;;;4260623;33;20234;-56
2021/04/28 13:36:53;;;;;;;15.95;4.12;;;;;;;;;;4265492;33;20248;-57
2021/04/28 13:39:33;;;;;;;15.13;3.92;;;;;;;;;;4260091;33;20216;-57
2021/04/28 13:42:05;;;;;;;15.25;4.50;;;;;;;;;;4257029;33;20250;-57
2021/04/28 13:44:32;;;;;;;12.93;4.37;;;;;;;;;;4255545;33;20236;-57
2021/04/28 13:46:59;;;;;;;21.77;5.32;;;;;;;;;;4260595;33;20337;-56
2021/04/28 13:49:26;;;;;;;9.38;4.45;;;;;;;;;;4268021;33;20213;-57
2021/04/28 13:51:56;;;;;;;17.27;5.45;;;;;;;;;;4263986;33;20240;-57
2021/04/28 13:54:23;;;;;;;10.90;4.50;;;;;;;;;;4256776;33;20316;-57
2021/04/28 13:56:50;;;;;;;17.85;4.90;;;;;;;;;;4263884;33;20295;-57
2021/04/28 13:59:16;;;;;;;15.25;4.65;;;;;;;;;;4260757;33;20229;-57
2021/04/28 14:01:44;;;;;;;16.30;4.95;;;;;;;;;;4257903;33;20241;-56
2021/04/28 14:04:12;;;;;;;15.48;5.57;;;;;;;;;;4265525;33;20271;-55
2021/04/28 14:06:37;;;;;;;28.40;5.47;;;;;;;;;;4261603;33;20310;-56
2021/04/28 14:09:04;;;;;;;30.65;7.45;;;;;;;;;;4274747;33;20748;-56
2021/04/28 14:11:29;;;;;;;25.80;5.22;;;;;;;;;;4266620;33;20224;-56
2021/04/28 14:13:55;;;;;;;26.50;3.87;;;;;;;;;;4267501;33;20354;-58
2021/04/28 14:16:20;;;;;;;14.40;3.58;;;;;;;;;;4282493;33;20228;-58
2021/04/28 14:18:47;;;;;;;22.27;5.15;;;;;;;;;;4260852;33;20571;-58
2021/04/28 14:21:13;;;;;;;24.02;4.93;;;;;;;;;;4258551;33;20217;-56
2021/04/28 14:23:38;;;;;;;108.10;73.65;;;;;;;;;;4279214;33;20333;-58
2021/04/28 14:26:05;;;;;;;120.53;85.25;;;;;;;;;;4270645;33;20328;-58
2021/04/28 14:28:30;;;;;;;50.20;15.05;;;;;;;;;;4269234;33;20652;-57
2021/04/28 14:30:56;;;;;;;33.90;11.75;;;;;;;;;;4265826;33;20220;-57